sensor_id;sensor_type;location;lat;lon;timestamp;P1;durP1;ratioP1;P2;durP2;ratioP2
13807;SDS011;40769;51.512;5.494;2022-10-15T00:01:04;6.82;;;6.22;;
13807;SDS011;40769;51.512;5.494;2022-10-15T00:03:34;6.70;;;6.13;;
13807;SDS011;40769;51.512;5.494;2022-10-15T00:06:05;6.35;;;5.85;;
13807;SDS011;40769;51.512;5.494;2022-10-15T00:08:32;6.20;;;5.70;;
13807;SDS011;40769;51.512;5.494;2022-10-15T00:11:02;7.53;;;6.93;;
13807;SDS011;40769;51.512;5.494;2022-10-15T00:13:30;7.53;;;6.93;;
13807;SDS011;40769;51.512;5.494;2022-10-15T00:15:56;7.28;;;6.68;;
13807;SDS011;40769;51.512;5.494;2022-10-15T00:18:22;7.03;;;6.43;;
13807;SDS011;40769;51.512;5.494;2022-10-15T00:20:48;6.32;;;5.82;;
13807;SDS011;40769;51.512;5.494;2022-10-15T00:23:13;6.80;;;6.30;;
13807;SDS011;40769;51.512;5.494;2022-10-15T00:25:39;6.50;;;6.00;;
13807;SDS011;40769;51.512;5.494;2022-10-15T00:28:06;6.20;;;5.70;;
13807;SDS011;40769;51.512;5.494;2022-10-15T00:30:32;6.07;;;5.60;;
13807;SDS011;40769;51.512;5.494;2022-10-15T00:32:57;6.20;;;5.70;;
13807;SDS011;40769;51.512;5.494;2022-10-15T00:35:23;6.68;;;6.07;;
13807;SDS011;40769;51.512;5.494;2022-10-15T00:37:49;8.20;;;7.47;;
13807;SDS011;40769;51.512;5.494;2022-10-15T00:40:14;8.15;;;7.53;;
13807;SDS011;40769;51.512;5.494;2022-10-15T00:42:40;8.23;;;7.53;;
13807;SDS011;40769;51.512;5.494;2022-10-15T00:45:07;8.60;;;7.82;;
13807;SDS011;40769;51.512;5.494;2022-10-15T00:47:45;8.55;;;7.82;;
13807;SDS011;40769;51.512;5.494;2022-10-15T00:50:17;9.27;;;8.48;;
13807;SDS011;40769;51.512;5.494;2022-10-15T00:52:53;8.52;;;7.82;;
13807;SDS011;40769;51.512;5.494;2022-10-15T00:55:28;9.65;;;8.85;;
13807;SDS011;40769;51.512;5.494;2022-10-15T00:58:15;9.63;;;8.75;;
13807;SDS011;40769;51.512;5.494;2022-10-15T01:00:46;9.80;;;9.00;;
13807;SDS011;40769;51.512;5.494;2022-10-15T01:03:11;9.40;;;8.60;;
13807;SDS011;40769;51.512;5.494;2022-10-15T01:05:37;10.43;;;9.52;;
13807;SDS011;40769;51.512;5.494;2022-10-15T01:08:04;9.45;;;8.65;;
13807;SDS011;40769;51.512;5.494;2022-10-15T01:13:43;9.40;;;8.60;;
13807;SDS011;40769;51.512;5.494;2022-10-15T01:16:23;8.82;;;8.13;;
13807;SDS011;40769;51.512;5.494;2022-10-15T01:18:53;9.05;;;8.35;;
13807;SDS011;40769;51.512;5.494;2022-10-15T01:21:43;9.52;;;8.73;;
13807;SDS011;40769;51.512;5.494;2022-10-15T01:32:06;8.60;;;7.93;;
13807;SDS011;40769;51.512;5.494;2022-10-15T01:35:03;9.70;;;8.90;;
13807;SDS011;40769;51.512;5.494;2022-10-15T01:37:49;8.80;;;8.10;;
13807;SDS011;40769;51.512;5.494;2022-10-15T01:40:21;9.20;;;8.40;;
13807;SDS011;40769;51.512;5.494;2022-10-15T01:42:56;9.82;;;9.02;;
13807;SDS011;40769;51.512;5.494;2022-10-15T01:45:27;8.50;;;7.80;;
13807;SDS011;40769;51.512;5.494;2022-10-15T01:48:04;9.60;;;8.80;;
13807;SDS011;40769;51.512;5.494;2022-10-15T01:50:33;9.75;;;9.02;;
13807;SDS011;40769;51.512;5.494;2022-10-15T01:53:02;10.02;;;9.23;;
13807;SDS011;40769;51.512;5.494;2022-10-15T01:55:32;13.38;;;12.27;;
13807;SDS011;40769;51.512;5.494;2022-10-15T01:58:01;11.85;;;10.95;;
13807;SDS011;40769;51.512;5.494;2022-10-15T02:00:29;10.30;;;9.45;;
13807;SDS011;40769;51.512;5.494;2022-10-15T02:02:58;10.73;;;9.77;;
13807;SDS011;40769;51.512;5.494;2022-10-15T02:05:27;11.65;;;10.75;;
13807;SDS011;40769;51.512;5.494;2022-10-15T02:08:03;10.27;;;9.40;;
13807;SDS011;40769;51.512;5.494;2022-10-15T02:10:44;8.57;;;7.93;;
13807;SDS011;40769;51.512;5.494;2022-10-15T02:21:34;9.93;;;9.13;;
13807;SDS011;40769;51.512;5.494;2022-10-15T02:26:35;9.05;;;8.27;;
13807;SDS011;40769;51.512;5.494;2022-10-15T02:29:04;9.93;;;9.13;;
13807;SDS011;40769;51.512;5.494;2022-10-15T02:31:34;8.38;;;7.78;;
13807;SDS011;40769;51.512;5.494;2022-10-15T02:34:06;8.40;;;7.80;;
13807;SDS011;40769;51.512;5.494;2022-10-15T02:36:35;9.23;;;8.52;;
13807;SDS011;40769;51.512;5.494;2022-10-15T02:39:04;10.95;;;10.13;;
13807;SDS011;40769;51.512;5.494;2022-10-15T02:41:32;8.55;;;7.85;;
13807;SDS011;40769;51.512;5.494;2022-10-15T02:44:00;11.27;;;10.38;;
13807;SDS011;40769;51.512;5.494;2022-10-15T02:46:27;11.23;;;10.27;;
13807;SDS011;40769;51.512;5.494;2022-10-15T02:48:52;10.32;;;9.52;;
13807;SDS011;40769;51.512;5.494;2022-10-15T02:51:18;12.57;;;11.63;;
13807;SDS011;40769;51.512;5.494;2022-10-15T02:53:44;9.82;;;9.13;;
13807;SDS011;40769;51.512;5.494;2022-10-15T02:56:09;10.85;;;10.02;;
13807;SDS011;40769;51.512;5.494;2022-10-15T02:58:35;9.77;;;9.07;;
13807;SDS011;40769;51.512;5.494;2022-10-15T03:01:00;7.28;;;6.78;;
13807;SDS011;40769;51.512;5.494;2022-10-15T03:03:26;7.82;;;7.18;;
13807;SDS011;40769;51.512;5.494;2022-10-15T03:05:51;8.52;;;7.82;;
13807;SDS011;40769;51.512;5.494;2022-10-15T03:08:17;8.27;;;7.57;;
13807;SDS011;40769;51.512;5.494;2022-10-15T03:10:42;9.55;;;8.85;;
13807;SDS011;40769;51.512;5.494;2022-10-15T03:13:09;10.77;;;9.93;;
13807;SDS011;40769;51.512;5.494;2022-10-15T03:15:35;8.40;;;7.80;;
13807;SDS011;40769;51.512;5.494;2022-10-15T03:18:01;9.32;;;8.55;;
13807;SDS011;40769;51.512;5.494;2022-10-15T03:20:27;12.02;;;10.98;;
13807;SDS011;40769;51.512;5.494;2022-10-15T03:22:52;11.73;;;10.80;;
13807;SDS011;40769;51.512;5.494;2022-10-15T03:25:18;9.32;;;8.55;;
13807;SDS011;40769;51.512;5.494;2022-10-15T03:27:43;9.68;;;8.98;;
13807;SDS011;40769;51.512;5.494;2022-10-15T03:30:09;8.43;;;7.72;;
13807;SDS011;40769;51.512;5.494;2022-10-15T03:32:35;8.13;;;7.50;;
13807;SDS011;40769;51.512;5.494;2022-10-15T03:35:01;9.13;;;8.43;;
13807;SDS011;40769;51.512;5.494;2022-10-15T03:37:26;10.85;;;9.98;;
13807;SDS011;40769;51.512;5.494;2022-10-15T03:39:52;8.93;;;8.23;;
13807;SDS011;40769;51.512;5.494;2022-10-15T03:42:17;14.73;;;13.30;;
13807;SDS011;40769;51.512;5.494;2022-10-15T03:44:43;12.73;;;11.73;;
13807;SDS011;40769;51.512;5.494;2022-10-15T03:47:08;10.20;;;9.40;;
13807;SDS011;40769;51.512;5.494;2022-10-15T03:49:34;9.13;;;8.38;;
13807;SDS011;40769;51.512;5.494;2022-10-15T03:52:00;9.13;;;8.32;;
13807;SDS011;40769;51.512;5.494;2022-10-15T03:54:25;12.50;;;11.40;;
13807;SDS011;40769;51.512;5.494;2022-10-15T03:56:51;9.43;;;8.73;;
13807;SDS011;40769;51.512;5.494;2022-10-15T03:59:16;9.38;;;8.63;;
13807;SDS011;40769;51.512;5.494;2022-10-15T04:01:42;8.70;;;8.00;;
13807;SDS011;40769;51.512;5.494;2022-10-15T04:04:09;11.00;;;10.10;;
13807;SDS011;40769;51.512;5.494;2022-10-15T04:06:36;9.80;;;9.00;;
13807;SDS011;40769;51.512;5.494;2022-10-15T04:09:02;11.27;;;10.38;;
13807;SDS011;40769;51.512;5.494;2022-10-15T04:11:28;12.63;;;11.52;;
13807;SDS011;40769;51.512;5.494;2022-10-15T04:13:53;10.07;;;9.27;;
13807;SDS011;40769;51.512;5.494;2022-10-15T04:16:19;12.20;;;11.15;;
13807;SDS011;40769;51.512;5.494;2022-10-15T04:18:44;10.52;;;9.68;;
13807;SDS011;40769;51.512;5.494;2022-10-15T04:21:10;9.10;;;8.30;;
13807;SDS011;40769;51.512;5.494;2022-10-15T04:23:36;12.98;;;11.85;;
13807;SDS011;40769;51.512;5.494;2022-10-15T04:26:02;12.95;;;11.93;;
13807;SDS011;40769;51.512;5.494;2022-10-15T04:28:27;16.48;;;15.15;;
13807;SDS011;40769;51.512;5.494;2022-10-15T04:30:57;17.73;;;16.17;;
13807;SDS011;40769;51.512;5.494;2022-10-15T04:33:23;15.57;;;14.27;;
13807;SDS011;40769;51.512;5.494;2022-10-15T04:35:59;18.80;;;17.23;;
13807;SDS011;40769;51.512;5.494;2022-10-15T04:38:26;19.02;;;17.40;;
13807;SDS011;40769;51.512;5.494;2022-10-15T04:41:05;16.75;;;15.35;;
13807;SDS011;40769;51.512;5.494;2022-10-15T04:43:33;18.23;;;16.63;;
13807;SDS011;40769;51.512;5.494;2022-10-15T04:45:59;20.98;;;19.08;;
13807;SDS011;40769;51.512;5.494;2022-10-15T04:48:27;18.25;;;16.63;;
13807;SDS011;40769;51.512;5.494;2022-10-15T04:50:54;16.55;;;15.07;;
13807;SDS011;40769;51.512;5.494;2022-10-15T04:53:26;19.38;;;17.60;;
13807;SDS011;40769;51.512;5.494;2022-10-15T04:55:52;17.17;;;15.68;;
13807;SDS011;40769;51.512;5.494;2022-10-15T04:58:17;18.40;;;16.77;;
13807;SDS011;40769;51.512;5.494;2022-10-15T05:00:43;18.25;;;16.65;;
13807;SDS011;40769;51.512;5.494;2022-10-15T05:03:08;18.08;;;16.48;;
13807;SDS011;40769;51.512;5.494;2022-10-15T05:05:34;18.55;;;16.95;;
13807;SDS011;40769;51.512;5.494;2022-10-15T05:08:00;14.95;;;13.65;;
13807;SDS011;40769;51.512;5.494;2022-10-15T05:10:27;14.68;;;13.45;;
13807;SDS011;40769;51.512;5.494;2022-10-15T05:12:52;14.57;;;13.38;;
13807;SDS011;40769;51.512;5.494;2022-10-15T05:15:18;17.98;;;16.50;;
13807;SDS011;40769;51.512;5.494;2022-10-15T05:17:43;16.45;;;15.05;;
13807;SDS011;40769;51.512;5.494;2022-10-15T05:20:09;15.57;;;14.25;;
13807;SDS011;40769;51.512;5.494;2022-10-15T05:22:35;17.45;;;15.95;;
13807;SDS011;40769;51.512;5.494;2022-10-15T05:25:00;17.63;;;16.13;;
13807;SDS011;40769;51.512;5.494;2022-10-15T05:27:26;13.15;;;12.05;;
13807;SDS011;40769;51.512;5.494;2022-10-15T05:29:51;12.68;;;11.68;;
13807;SDS011;40769;51.512;5.494;2022-10-15T05:32:17;15.40;;;14.20;;
13807;SDS011;40769;51.512;5.494;2022-10-15T05:34:42;16.30;;;14.93;;
13807;SDS011;40769;51.512;5.494;2022-10-15T05:37:08;15.20;;;13.90;;
13807;SDS011;40769;51.512;5.494;2022-10-15T05:39:34;14.90;;;13.65;;
13807;SDS011;40769;51.512;5.494;2022-10-15T05:41:59;15.40;;;14.15;;
13807;SDS011;40769;51.512;5.494;2022-10-15T05:44:25;17.50;;;15.90;;
13807;SDS011;40769;51.512;5.494;2022-10-15T05:46:50;15.43;;;14.13;;
13807;SDS011;40769;51.512;5.494;2022-10-15T05:49:16;14.55;;;13.25;;
13807;SDS011;40769;51.512;5.494;2022-10-15T05:51:43;13.43;;;12.32;;
13807;SDS011;40769;51.512;5.494;2022-10-15T05:54:08;14.98;;;13.73;;
13807;SDS011;40769;51.512;5.494;2022-10-15T05:56:34;16.83;;;15.43;;
13807;SDS011;40769;51.512;5.494;2022-10-15T05:58:59;15.50;;;14.10;;
13807;SDS011;40769;51.512;5.494;2022-10-15T06:01:26;12.20;;;11.23;;
13807;SDS011;40769;51.512;5.494;2022-10-15T06:03:52;16.05;;;14.57;;
13807;SDS011;40769;51.512;5.494;2022-10-15T06:06:19;16.45;;;15.13;;
13807;SDS011;40769;51.512;5.494;2022-10-15T06:08:47;17.98;;;16.48;;
13807;SDS011;40769;51.512;5.494;2022-10-15T06:11:13;18.63;;;17.02;;
13807;SDS011;40769;51.512;5.494;2022-10-15T06:13:39;14.73;;;13.52;;
13807;SDS011;40769;51.512;5.494;2022-10-15T06:16:06;14.32;;;13.13;;
13807;SDS011;40769;51.512;5.494;2022-10-15T06:18:33;12.45;;;11.35;;
13807;SDS011;40769;51.512;5.494;2022-10-15T06:20:59;11.70;;;10.70;;
13807;SDS011;40769;51.512;5.494;2022-10-15T06:23:24;13.55;;;12.35;;
13807;SDS011;40769;51.512;5.494;2022-10-15T06:25:50;14.85;;;13.55;;
13807;SDS011;40769;51.512;5.494;2022-10-15T06:28:16;15.60;;;14.27;;
13807;SDS011;40769;51.512;5.494;2022-10-15T06:30:42;15.50;;;14.10;;
13807;SDS011;40769;51.512;5.494;2022-10-15T06:33:08;17.98;;;16.42;;
13807;SDS011;40769;51.512;5.494;2022-10-15T06:35:34;15.35;;;13.98;;
13807;SDS011;40769;51.512;5.494;2022-10-15T06:38:00;14.98;;;13.68;;
13807;SDS011;40769;51.512;5.494;2022-10-15T06:40:26;15.40;;;14.00;;
13807;SDS011;40769;51.512;5.494;2022-10-15T06:42:51;13.73;;;12.52;;
13807;SDS011;40769;51.512;5.494;2022-10-15T06:45:17;14.90;;;13.60;;
13807;SDS011;40769;51.512;5.494;2022-10-15T06:47:42;12.68;;;11.57;;
13807;SDS011;40769;51.512;5.494;2022-10-15T06:50:08;11.52;;;10.55;;
13807;SDS011;40769;51.512;5.494;2022-10-15T06:52:34;11.75;;;10.75;;
13807;SDS011;40769;51.512;5.494;2022-10-15T06:54:59;10.07;;;9.23;;
13807;SDS011;40769;51.512;5.494;2022-10-15T06:57:28;12.23;;;11.07;;
13807;SDS011;40769;51.512;5.494;2022-10-15T06:59:54;10.18;;;9.38;;
13807;SDS011;40769;51.512;5.494;2022-10-15T07:02:19;13.70;;;12.50;;
13807;SDS011;40769;51.512;5.494;2022-10-15T07:04:45;11.02;;;10.13;;
13807;SDS011;40769;51.512;5.494;2022-10-15T07:07:11;12.85;;;11.73;;
13807;SDS011;40769;51.512;5.494;2022-10-15T07:09:38;12.20;;;11.10;;
13807;SDS011;40769;51.512;5.494;2022-10-15T07:12:03;11.25;;;10.35;;
13807;SDS011;40769;51.512;5.494;2022-10-15T07:14:29;9.88;;;9.07;;
13807;SDS011;40769;51.512;5.494;2022-10-15T07:16:55;11.10;;;10.20;;
13807;SDS011;40769;51.512;5.494;2022-10-15T07:19:22;9.90;;;9.10;;
13807;SDS011;40769;51.512;5.494;2022-10-15T07:21:47;9.82;;;9.02;;
13807;SDS011;40769;51.512;5.494;2022-10-15T07:24:13;10.48;;;9.57;;
13807;SDS011;40769;51.512;5.494;2022-10-15T07:26:38;11.32;;;10.32;;
13807;SDS011;40769;51.512;5.494;2022-10-15T07:29:04;8.57;;;7.88;;
13807;SDS011;40769;51.512;5.494;2022-10-15T07:31:29;11.05;;;10.05;;
13807;SDS011;40769;51.512;5.494;2022-10-15T07:33:55;10.10;;;9.20;;
13807;SDS011;40769;51.512;5.494;2022-10-15T07:36:21;12.23;;;11.13;;
13807;SDS011;40769;51.512;5.494;2022-10-15T07:38:46;10.20;;;9.38;;
13807;SDS011;40769;51.512;5.494;2022-10-15T07:41:12;12.63;;;11.52;;
13807;SDS011;40769;51.512;5.494;2022-10-15T07:43:38;12.85;;;11.75;;
13807;SDS011;40769;51.512;5.494;2022-10-15T07:46:04;11.07;;;10.18;;
13807;SDS011;40769;51.512;5.494;2022-10-15T07:48:30;12.60;;;11.50;;
13807;SDS011;40769;51.512;5.494;2022-10-15T07:51:00;9.77;;;8.95;;
13807;SDS011;40769;51.512;5.494;2022-10-15T07:53:28;9.02;;;8.30;;
13807;SDS011;40769;51.512;5.494;2022-10-15T07:55:57;8.63;;;7.93;;
13807;SDS011;40769;51.512;5.494;2022-10-15T07:58:27;10.25;;;9.43;;
13807;SDS011;40769;51.512;5.494;2022-10-15T08:00:54;11.00;;;10.00;;
13807;SDS011;40769;51.512;5.494;2022-10-15T08:03:20;10.13;;;9.32;;
13807;SDS011;40769;51.512;5.494;2022-10-15T08:05:45;8.25;;;7.55;;
13807;SDS011;40769;51.512;5.494;2022-10-15T08:08:11;8.60;;;7.90;;
13807;SDS011;40769;51.512;5.494;2022-10-15T08:10:37;9.07;;;8.27;;
13807;SDS011;40769;51.512;5.494;2022-10-15T08:13:02;9.35;;;8.50;;
13807;SDS011;40769;51.512;5.494;2022-10-15T08:15:28;8.48;;;7.78;;
13807;SDS011;40769;51.512;5.494;2022-10-15T08:17:53;8.98;;;8.27;;
13807;SDS011;40769;51.512;5.494;2022-10-15T08:20:19;8.45;;;7.65;;
13807;SDS011;40769;51.512;5.494;2022-10-15T08:22:44;7.15;;;6.55;;
13807;SDS011;40769;51.512;5.494;2022-10-15T08:25:10;6.30;;;5.80;;
13807;SDS011;40769;51.512;5.494;2022-10-15T08:27:35;7.47;;;6.82;;
13807;SDS011;40769;51.512;5.494;2022-10-15T08:30:01;6.22;;;5.72;;
13807;SDS011;40769;51.512;5.494;2022-10-15T08:32:28;5.72;;;5.30;;
13807;SDS011;40769;51.512;5.494;2022-10-15T08:34:53;6.03;;;5.53;;
13807;SDS011;40769;51.512;5.494;2022-10-15T08:37:19;5.80;;;5.30;;
13807;SDS011;40769;51.512;5.494;2022-10-15T08:39:44;5.53;;;5.07;;
13807;SDS011;40769;51.512;5.494;2022-10-15T08:42:13;4.78;;;4.38;;
13807;SDS011;40769;51.512;5.494;2022-10-15T08:44:45;5.60;;;5.20;;
13807;SDS011;40769;51.512;5.494;2022-10-15T08:47:30;4.72;;;4.32;;
13807;SDS011;40769;51.512;5.494;2022-10-15T08:53:13;6.03;;;5.50;;
13807;SDS011;40769;51.512;5.494;2022-10-15T08:55:44;4.50;;;4.18;;
13807;SDS011;40769;51.512;5.494;2022-10-15T08:58:14;4.80;;;4.40;;
13807;SDS011;40769;51.512;5.494;2022-10-15T09:00:57;5.53;;;5.03;;
13807;SDS011;40769;51.512;5.494;2022-10-15T09:06:06;4.32;;;4.03;;
13807;SDS011;40769;51.512;5.494;2022-10-15T09:08:54;5.70;;;5.20;;
13807;SDS011;40769;51.512;5.494;2022-10-15T09:11:36;3.97;;;3.67;;
13807;SDS011;40769;51.512;5.494;2022-10-15T09:14:06;4.05;;;3.75;;
13807;SDS011;40769;51.512;5.494;2022-10-15T09:16:37;3.97;;;3.67;;
13807;SDS011;40769;51.512;5.494;2022-10-15T09:19:09;5.90;;;5.40;;
13807;SDS011;40769;51.512;5.494;2022-10-15T09:21:39;4.50;;;4.10;;
13807;SDS011;40769;51.512;5.494;2022-10-15T09:24:08;4.72;;;4.32;;
13807;SDS011;40769;51.512;5.494;2022-10-15T09:31:58;3.60;;;3.30;;
13807;SDS011;40769;51.512;5.494;2022-10-15T09:34:50;4.80;;;4.40;;
13807;SDS011;40769;51.512;5.494;2022-10-15T09:38:00;4.85;;;4.45;;
13807;SDS011;40769;51.512;5.494;2022-10-15T09:43:08;3.67;;;3.38;;
13807;SDS011;40769;51.512;5.494;2022-10-15T09:45:35;3.08;;;2.88;;
13807;SDS011;40769;51.512;5.494;2022-10-15T09:48:04;3.70;;;3.40;;
13807;SDS011;40769;51.512;5.494;2022-10-15T09:50:45;3.28;;;3.03;;
13807;SDS011;40769;51.512;5.494;2022-10-15T09:56:21;3.55;;;3.25;;
13807;SDS011;40769;51.512;5.494;2022-10-15T09:58:55;3.20;;;2.75;;
13807;SDS011;40769;51.512;5.494;2022-10-15T10:01:23;3.22;;;2.97;;
13807;SDS011;40769;51.512;5.494;2022-10-15T10:04:02;2.78;;;2.58;;
13807;SDS011;40769;51.512;5.494;2022-10-15T10:06:47;2.70;;;2.42;;
13807;SDS011;40769;51.512;5.494;2022-10-15T10:09:22;2.42;;;2.22;;
13807;SDS011;40769;51.512;5.494;2022-10-15T10:11:52;2.92;;;2.70;;
13807;SDS011;40769;51.512;5.494;2022-10-15T10:14:33;2.53;;;2.33;;
13807;SDS011;40769;51.512;5.494;2022-10-15T10:19:44;3.03;;;2.22;;
13807;SDS011;40769;51.512;5.494;2022-10-15T10:22:26;2.17;;;2.08;;
13807;SDS011;40769;51.512;5.494;2022-10-15T10:24:51;2.08;;;1.98;;
13807;SDS011;40769;51.512;5.494;2022-10-15T10:27:19;2.42;;;2.22;;
13807;SDS011;40769;51.512;5.494;2022-10-15T10:32:33;1.55;;;1.35;;
13807;SDS011;40769;51.512;5.494;2022-10-15T10:35:00;2.13;;;1.92;;
13807;SDS011;40769;51.512;5.494;2022-10-15T10:37:28;2.35;;;1.70;;
13807;SDS011;40769;51.512;5.494;2022-10-15T10:40:18;1.70;;;1.60;;
13807;SDS011;40769;51.512;5.494;2022-10-15T10:43:16;1.77;;;1.50;;
13807;SDS011;40769;51.512;5.494;2022-10-15T10:46:03;1.13;;;1.05;;
13807;SDS011;40769;51.512;5.494;2022-10-15T10:48:46;1.00;;;0.98;;
13807;SDS011;40769;51.512;5.494;2022-10-15T10:51:15;1.30;;;1.20;;
13807;SDS011;40769;51.512;5.494;2022-10-15T10:53:46;1.10;;;1.00;;
13807;SDS011;40769;51.512;5.494;2022-10-15T10:56:22;0.82;;;0.82;;
13807;SDS011;40769;51.512;5.494;2022-10-15T10:58:54;1.20;;;0.85;;
13807;SDS011;40769;51.512;5.494;2022-10-15T11:01:33;1.25;;;1.10;;
13807;SDS011;40769;51.512;5.494;2022-10-15T11:03:58;0.80;;;0.80;;
13807;SDS011;40769;51.512;5.494;2022-10-15T11:09:31;0.90;;;0.90;;
13807;SDS011;40769;51.512;5.494;2022-10-15T11:14:55;1.35;;;0.95;;
13807;SDS011;40769;51.512;5.494;2022-10-15T11:17:48;1.58;;;1.00;;
13807;SDS011;40769;51.512;5.494;2022-10-15T11:20:52;1.38;;;1.23;;
13807;SDS011;40769;51.512;5.494;2022-10-15T11:26:27;1.20;;;1.10;;
13807;SDS011;40769;51.512;5.494;2022-10-15T11:45:55;0.80;;;0.80;;
13807;SDS011;40769;51.512;5.494;2022-10-15T11:54:08;1.15;;;1.05;;
13807;SDS011;40769;51.512;5.494;2022-10-15T11:56:57;1.25;;;1.17;;
13807;SDS011;40769;51.512;5.494;2022-10-15T11:59:32;1.20;;;1.10;;
13807;SDS011;40769;51.512;5.494;2022-10-15T12:02:09;4.13;;;1.17;;
13807;SDS011;40769;51.512;5.494;2022-10-15T12:04:52;1.10;;;0.90;;
13807;SDS011;40769;51.512;5.494;2022-10-15T12:07:23;1.30;;;1.20;;
13807;SDS011;40769;51.512;5.494;2022-10-15T12:09:54;1.17;;;1.08;;
13807;SDS011;40769;51.512;5.494;2022-10-15T12:20:51;1.02;;;1.00;;
13807;SDS011;40769;51.512;5.494;2022-10-15T12:26:00;1.00;;;1.00;;
13807;SDS011;40769;51.512;5.494;2022-10-15T12:28:28;0.90;;;0.85;;
13807;SDS011;40769;51.512;5.494;2022-10-15T12:30:55;0.98;;;0.98;;
13807;SDS011;40769;51.512;5.494;2022-10-15T12:33:23;0.95;;;0.88;;
13807;SDS011;40769;51.512;5.494;2022-10-15T12:35:54;0.98;;;0.98;;
13807;SDS011;40769;51.512;5.494;2022-10-15T12:38:40;1.30;;;1.20;;
13807;SDS011;40769;51.512;5.494;2022-10-15T12:41:16;0.80;;;0.80;;
13807;SDS011;40769;51.512;5.494;2022-10-15T12:43:42;1.27;;;1.17;;
13807;SDS011;40769;51.512;5.494;2022-10-15T12:46:12;0.90;;;0.90;;
13807;SDS011;40769;51.512;5.494;2022-10-15T12:48:44;0.88;;;0.88;;
13807;SDS011;40769;51.512;5.494;2022-10-15T12:53:46;1.33;;;1.23;;
13807;SDS011;40769;51.512;5.494;2022-10-15T13:08:47;1.38;;;1.27;;
13807;SDS011;40769;51.512;5.494;2022-10-15T13:11:29;1.45;;;1.35;;
13807;SDS011;40769;51.512;5.494;2022-10-15T13:16:33;1.52;;;1.42;;
13807;SDS011;40769;51.512;5.494;2022-10-15T13:19:00;1.20;;;1.10;;
13807;SDS011;40769;51.512;5.494;2022-10-15T13:21:46;1.30;;;1.20;;
13807;SDS011;40769;51.512;5.494;2022-10-15T13:24:24;1.50;;;1.40;;
13807;SDS011;40769;51.512;5.494;2022-10-15T13:26:52;1.20;;;1.10;;
13807;SDS011;40769;51.512;5.494;2022-10-15T13:29:23;1.33;;;1.23;;
13807;SDS011;40769;51.512;5.494;2022-10-15T13:31:50;1.40;;;1.30;;
13807;SDS011;40769;51.512;5.494;2022-10-15T13:34:32;1.20;;;1.20;;
13807;SDS011;40769;51.512;5.494;2022-10-15T13:37:00;1.33;;;1.23;;
13807;SDS011;40769;51.512;5.494;2022-10-15T13:42:15;1.80;;;1.70;;
13807;SDS011;40769;51.512;5.494;2022-10-15T13:44:43;1.50;;;1.40;;
13807;SDS011;40769;51.512;5.494;2022-10-15T13:49:49;2.05;;;1.75;;
13807;SDS011;40769;51.512;5.494;2022-10-15T13:52:15;1.60;;;1.50;;
13807;SDS011;40769;51.512;5.494;2022-10-15T13:54:43;1.77;;;1.67;;
13807;SDS011;40769;51.512;5.494;2022-10-15T13:57:11;1.70;;;1.60;;
13807;SDS011;40769;51.512;5.494;2022-10-15T13:59:42;1.95;;;1.73;;
13807;SDS011;40769;51.512;5.494;2022-10-15T14:02:10;1.73;;;1.63;;
13807;SDS011;40769;51.512;5.494;2022-10-15T14:04:36;1.60;;;1.50;;
13807;SDS011;40769;51.512;5.494;2022-10-15T14:07:03;1.10;;;1.00;;
13807;SDS011;40769;51.512;5.494;2022-10-15T14:09:45;0.70;;;0.70;;
13807;SDS011;40769;51.512;5.494;2022-10-15T14:12:12;0.60;;;0.60;;
13807;SDS011;40769;51.512;5.494;2022-10-15T14:17:10;1.38;;;0.43;;
13807;SDS011;40769;51.512;5.494;2022-10-15T14:19:44;0.52;;;0.40;;
13807;SDS011;40769;51.512;5.494;2022-10-15T14:22:14;0.57;;;0.38;;
13807;SDS011;40769;51.512;5.494;2022-10-15T14:24:42;0.40;;;0.40;;
13807;SDS011;40769;51.512;5.494;2022-10-15T14:29:42;0.32;;;0.32;;
13807;SDS011;40769;51.512;5.494;2022-10-15T14:34:45;0.40;;;0.35;;
13807;SDS011;40769;51.512;5.494;2022-10-15T14:42:32;0.85;;;0.63;;
13807;SDS011;40769;51.512;5.494;2022-10-15T14:45:08;1.05;;;0.40;;
13807;SDS011;40769;51.512;5.494;2022-10-15T14:47:52;0.60;;;0.50;;
13807;SDS011;40769;51.512;5.494;2022-10-15T14:50:28;0.77;;;0.60;;
13807;SDS011;40769;51.512;5.494;2022-10-15T14:52:55;0.60;;;0.52;;
13807;SDS011;40769;51.512;5.494;2022-10-15T14:57:48;0.55;;;0.43;;
13807;SDS011;40769;51.512;5.494;2022-10-15T15:02:56;0.40;;;0.40;;
13807;SDS011;40769;51.512;5.494;2022-10-15T15:05:23;0.63;;;0.50;;
13807;SDS011;40769;51.512;5.494;2022-10-15T15:07:50;0.40;;;0.30;;
13807;SDS011;40769;51.512;5.494;2022-10-15T15:10:17;0.40;;;0.40;;
13807;SDS011;40769;51.512;5.494;2022-10-15T15:12:53;0.60;;;0.50;;
13807;SDS011;40769;51.512;5.494;2022-10-15T15:15:21;0.80;;;0.57;;
13807;SDS011;40769;51.512;5.494;2022-10-15T15:17:49;1.08;;;0.55;;
13807;SDS011;40769;51.512;5.494;2022-10-15T15:20:16;0.40;;;0.30;;
13807;SDS011;40769;51.512;5.494;2022-10-15T15:22:49;1.23;;;0.55;;
13807;SDS011;40769;51.512;5.494;2022-10-15T15:25:23;0.73;;;0.50;;
13807;SDS011;40769;51.512;5.494;2022-10-15T15:27:59;1.02;;;0.50;;
13807;SDS011;40769;51.512;5.494;2022-10-15T15:30:26;0.73;;;0.50;;
13807;SDS011;40769;51.512;5.494;2022-10-15T15:32:53;0.93;;;0.47;;
13807;SDS011;40769;51.512;5.494;2022-10-15T15:35:20;0.63;;;0.47;;
13807;SDS011;40769;51.512;5.494;2022-10-15T15:37:52;0.70;;;0.32;;
13807;SDS011;40769;51.512;5.494;2022-10-15T15:40:18;0.68;;;0.57;;
13807;SDS011;40769;51.512;5.494;2022-10-15T15:42:44;0.40;;;0.40;;
13807;SDS011;40769;51.512;5.494;2022-10-15T15:45:13;0.70;;;0.63;;
13807;SDS011;40769;51.512;5.494;2022-10-15T15:47:43;1.05;;;0.60;;
13807;SDS011;40769;51.512;5.494;2022-10-15T15:50:09;0.50;;;0.50;;
13807;SDS011;40769;51.512;5.494;2022-10-15T15:52:34;0.88;;;0.80;;
13807;SDS011;40769;51.512;5.494;2022-10-15T15:55:00;0.77;;;0.77;;
13807;SDS011;40769;51.512;5.494;2022-10-15T15:57:25;1.52;;;0.60;;
13807;SDS011;40769;51.512;5.494;2022-10-15T15:59:51;0.63;;;0.63;;
13807;SDS011;40769;51.512;5.494;2022-10-15T16:02:16;0.88;;;0.70;;
13807;SDS011;40769;51.512;5.494;2022-10-15T16:04:43;1.00;;;0.77;;
13807;SDS011;40769;51.512;5.494;2022-10-15T16:07:09;2.25;;;0.95;;
13807;SDS011;40769;51.512;5.494;2022-10-15T16:09:35;2.00;;;1.10;;
13807;SDS011;40769;51.512;5.494;2022-10-15T16:12:01;1.20;;;0.75;;
13807;SDS011;40769;51.512;5.494;2022-10-15T16:14:26;0.57;;;0.50;;
13807;SDS011;40769;51.512;5.494;2022-10-15T16:16:52;1.50;;;1.20;;
13807;SDS011;40769;51.512;5.494;2022-10-15T16:19:17;1.65;;;1.52;;
13807;SDS011;40769;51.512;5.494;2022-10-15T16:21:43;1.50;;;1.40;;
13807;SDS011;40769;51.512;5.494;2022-10-15T16:24:09;2.70;;;2.50;;
13807;SDS011;40769;51.512;5.494;2022-10-15T16:26:34;1.35;;;1.20;;
13807;SDS011;40769;51.512;5.494;2022-10-15T16:29:00;1.40;;;1.30;;
13807;SDS011;40769;51.512;5.494;2022-10-15T16:31:26;2.75;;;2.55;;
13807;SDS011;40769;51.512;5.494;2022-10-15T16:33:53;20.92;;;17.08;;
13807;SDS011;40769;51.512;5.494;2022-10-15T16:36:19;13.95;;;12.20;;
13807;SDS011;40769;51.512;5.494;2022-10-15T16:38:45;10.02;;;9.02;;
13807;SDS011;40769;51.512;5.494;2022-10-15T16:41:12;8.80;;;7.90;;
13807;SDS011;40769;51.512;5.494;2022-10-15T16:43:38;9.10;;;7.90;;
13807;SDS011;40769;51.512;5.494;2022-10-15T16:46:04;8.57;;;7.68;;
13807;SDS011;40769;51.512;5.494;2022-10-15T16:48:33;8.68;;;7.80;;
13807;SDS011;40769;51.512;5.494;2022-10-15T16:53:32;9.65;;;8.68;;
13807;SDS011;40769;51.512;5.494;2022-10-15T16:56:00;7.80;;;7.00;;
13807;SDS011;40769;51.512;5.494;2022-10-15T16:58:28;5.95;;;5.45;;
13807;SDS011;40769;51.512;5.494;2022-10-15T17:00:56;17.20;;;15.50;;
13807;SDS011;40769;51.512;5.494;2022-10-15T17:03:30;23.05;;;20.88;;